Thursday, May 26, 2016
10:36 UTC
  |  Log In   |  Register Free
Airport Search:

Enid Woodring Regional Airport
(KWDG)

FAA data valid effective Mar 31 2016 - May 26 2016 (unless otherwise noted).

 
 
 
 
 
 
 
 
 
 
 
 
 
 
Current Aviation Weather for KWDG

Weather Summary


The most recent METAR observation for WDG was updated at: 12:50 UTC
METAR for KWDG is not available. Closest METAR is for KEND
KWDG  (most recent observation was updatred at 26:10 UTC)
261015Z AUTO 17011KT 7SM CLR 25/22 A2981 RMK AO2

KEND  (6.6 nm NE)   (most recent observation was updated at 26:09 UTC)
260958Z AUTO 14009KT 9SM R17C/5500FT CLR 24/23 A2982 RMK AO2 SLP084 P0000 T02410231 $

KBKN  (30.6 nm SW)   (most recent observation was updated at 26:10 UTC)
261015Z AUTO 17008KT 4SM BR SCT019 SCT024 SCT029 24/24 A2984 RMK AO2

TAF for KWDG is not available.
KEND  (6.6 nm NE)   (most recent observation was updatred at 26:10 UTC)
261000Z 2610/2716 18012KT 9999 SKC QNH2980INS BECMG 2614/2615 19015G25KT 9999 BKN020 QNH2971INS BECMG 2619/2620 18020G30KT 9999 BKN020 QNH2969INS TEMPO 2622/2704 19035G45KT 3200 TSRAGR BKN020CB BECMG 2703/2704 16012KT 9000 -SHRA BKN015 WS020/18040KT QNH2971INS BECMG 2708/2709 17010KT 9000 -SHRA BKN009 WS020/18040KT QNH2969INS BECMG 2711/2712 17015G25KT 9999 NSW BKN003 WS020/18040KT QNH2969INS BECMG 2714/2715 17015G25KT 9999 BKN010 QNH2972INS TX31/2620Z TN19/2611Z


GlobalAir.com is loading additional information.
 Current Weather at WDG
77.0 F° (25.0 C°)

South winds at 17.3 mph
Pressure:
29.83 in
Humidity:
89%
Wind:
South at 17.3 mph
Dew Point:
73.4 F° (23.0 C°)
Visibility:
7.00 mi
WDG NOAA Radar




Find All Airport Services Find A Hotel Find A Rental Car Find A Golf Course Find A Restaurant $100 Hamburger



Airport Weather Forecast for KWDG

Translated METAR for KWDG (1015 UTC)
METAR:
KWDG 261015Z AUTO 17011KT 7SM CLR 25/22 A2981 RMK AO2
Conditions at:
KWDG (Enid Woodring Rgnl, OK) observed 1015 UTC 26 May 2016
Temperature:
25°C (77°F)
Dewpoint:
22°C (71.6°F) [RH = 83.5]
Pressure:
29.81 inches Hg (1009.5 mb)
Winds:
from the S (170 degrees) at 12.7 mph (11 knots: 5.7 m/s)
Visibility:
7 mile(s)
Ceiling:
at least 12,000 feet AGL
Clouds:
Clear below 12,000 feet AGL
Remarks:
site is un-manned
site is automated and HAS a precipitation sensor

Translated TAF for KEND (Vance Afb, OK) (1000 UTC)
TAF text:
KEND 261000Z 2610/2716 18012KT 9999 SKC QNH2980INS BECMG 2614/2615 19015G25KT 9999 BKN020 QNH2971INS BECMG 2619/2620 18020G30KT 9999 BKN020 QNH2969INS
Forecast period:
Thursday May 26 2016 10:00 UTC - Friday May 27 2016 16:00 UTC
Forecast type:
FROM: standard forecast or significant change
Winds:
from the S (180 degrees) at 23 mph (20 knots: 10.3 m/s)
gusting to 34.5 mph (30 knots: 15.4 m/s)
Visibility:
Ceiling:
at least 12,000 feet AGL
2,000 feet AGL
2,000 feet AGL
Clouds:
Clear Skies
Broken Cloud Cover at 2,000 feet AGL
Broken Cloud Cover at 2,000 feet AGL
Weather:
no significant weather observed at this time
TAF text:
2622/2704 19035G45KT 3200 TSRAGR BKN020CB BECMG 2703/2704 16012KT 9000 -SHRA BKN015 WS020/18040KT QNH2971INS BECMG 2708/2709 17010KT 9000 -SHRA BKN009 WS020/18040KT QNH2969INS BECMG 2711/2712 17015G25KT 9999 NSW BKN003 WS020/18040KT QNH2969INS BECMG 2714/2715 17015G25KT 9999 BKN010 QNH2972INS TX31/2620Z TN19/2611Z
Forecast period:
Friday May 27 2016 22:00 UTC - Saturday May 28 2016 04:00 UTC
Forecast type:
FROM: standard forecast or significant change
Winds:
from the S (170 degrees) at 17.3 mph (15 knots: 7.7 m/s)
gusting to 28.8 mph (25 knots: 12.9 m/s)
Visibility:
Ceiling:
1,500 feet AGL
900 feet AGL
300 feet AGL
1,000 feet AGL
Clouds:
Broken Cloud Cover at 1,500 feet AGL
Broken Cloud Cover at 900 feet AGL
Broken Cloud Cover at 300 feet AGL
Broken Cloud Cover at 1,000 feet AGL
Weather:
Moderate Thunderstorm Rain Hail
FBO's on the Field
FBO Company Facility Photos Services Transportation Aviation Fuel Prices: Prices include tax
Catering Weather Repair Courtesy Rental Type 100LL JetA JetA+ MOGAS 8087
 
Enid Woodring Regional Airport

This FBO has not yet been rated
FS:Phillips 66
Last Updated: May-23
Login to update fuel prices
SS:
Contact Enid Woodring Regional AirportMore FBO Information
 
Add another FBO Facility Photos Catering Weather Repair Courtesy Rental Type 100LL JetA JetA+ MOGAS 8087
Services Transportation Aviation Fuel Prices: Prices include tax


model-print
model-print
model-print
model-print